createdAt,value
2023-04-29T00:01:38.932Z,6.75
2023-04-29T00:05:45.690Z,5.95
2023-04-29T00:09:23.979Z,6.30
2023-04-29T00:13:07.845Z,5.87
2023-04-29T00:16:42.994Z,3.85
2023-04-29T00:20:33.185Z,4.65
2023-04-29T00:24:02.486Z,4.20
2023-04-29T00:27:50.167Z,6.62
2023-04-29T00:31:33.051Z,7.43
2023-04-29T00:35:20.587Z,8.45
2023-04-29T00:38:50.266Z,5.65
2023-04-29T00:42:35.905Z,3.72
2023-04-29T00:46:14.349Z,8.35
2023-04-29T00:53:43.424Z,2.95
2023-04-29T00:57:09.070Z,3.20
2023-04-29T01:01:01.726Z,4.05
2023-04-29T01:04:55.789Z,8.98
2023-04-29T01:09:03.126Z,5.75
2023-04-29T01:13:09.930Z,5.00
2023-04-29T01:17:13.051Z,3.30
2023-04-29T01:21:02.093Z,5.30
2023-04-29T01:24:50.374Z,3.60
2023-04-29T01:28:53.249Z,5.78
2023-04-29T01:32:53.502Z,4.43
2023-04-29T01:37:09.498Z,3.92
2023-04-29T01:41:19.193Z,3.75
2023-04-29T01:45:27.029Z,3.33
2023-04-29T01:49:50.575Z,5.32
2023-04-29T01:53:40.569Z,5.93
2023-04-29T01:57:25.841Z,3.90
2023-04-29T02:01:01.172Z,4.28
2023-04-29T02:04:45.594Z,2.80
2023-04-29T02:08:21.023Z,3.45
2023-04-29T02:12:04.974Z,3.55
2023-04-29T02:15:57.295Z,2.78
2023-04-29T02:19:46.296Z,4.20
2023-04-29T02:23:35.737Z,4.35
2023-04-29T02:27:07.050Z,11.55
2023-04-29T02:30:40.404Z,3.87
2023-04-29T02:34:13.669Z,4.10
2023-04-29T02:37:58.068Z,4.03
2023-04-29T02:41:21.506Z,3.72
2023-04-29T02:45:12.741Z,6.28
2023-04-29T02:52:34.922Z,5.30
2023-04-29T02:56:08.179Z,2.53
2023-04-29T02:59:44.690Z,6.43
2023-04-29T03:03:33.525Z,2.30
2023-04-29T03:06:59.705Z,4.05
2023-04-29T03:10:39.834Z,4.45
2023-04-29T03:14:24.458Z,4.47
2023-04-29T03:18:11.070Z,3.53
2023-04-29T03:21:46.477Z,5.00
2023-04-29T03:25:26.491Z,4.20
2023-04-29T03:29:15.053Z,3.05
2023-04-29T03:32:53.592Z,3.83
2023-04-29T03:36:37.013Z,4.70
2023-04-29T03:40:19.907Z,3.50
2023-04-29T03:43:56.369Z,6.40
2023-04-29T03:47:50.230Z,2.92
2023-04-29T03:51:31.613Z,4.93
2023-04-29T03:59:08.151Z,2.92
2023-04-29T04:02:47.162Z,4.18
2023-04-29T04:09:59.468Z,3.40
2023-04-29T04:13:50.015Z,4.05
2023-04-29T04:17:32.145Z,3.40
2023-04-29T04:21:28.352Z,3.12
2023-04-29T04:25:05.122Z,3.62
2023-04-29T04:28:26.298Z,3.90
2023-04-29T04:31:48.862Z,4.68
2023-04-29T04:39:08.288Z,5.55
2023-04-29T04:42:27.141Z,7.15
2023-04-29T04:45:44.450Z,4.60
2023-04-29T04:49:06.118Z,4.85
2023-04-29T04:52:33.057Z,6.95
2023-04-29T04:56:07.532Z,4.55
2023-04-29T04:59:32.180Z,7.80
2023-04-29T05:02:50.685Z,7.35
2023-04-29T05:06:40.462Z,5.68
2023-04-29T05:10:03.001Z,7.60
2023-04-29T05:13:37.110Z,55.80
2023-04-29T05:17:01.663Z,53.55
2023-04-29T05:20:21.849Z,14.95
2023-04-29T05:23:46.044Z,9.05
2023-04-29T05:27:11.378Z,8.23
2023-04-29T05:30:29.717Z,4.82
2023-04-29T05:33:59.719Z,7.90
2023-04-29T05:37:35.965Z,9.20
2023-04-29T05:41:06.286Z,8.90
2023-04-29T05:44:30.829Z,16.00
2023-04-29T05:47:48.711Z,16.87
2023-04-29T05:54:49.392Z,16.92
2023-04-29T05:58:23.482Z,19.10
2023-04-29T06:01:41.324Z,16.95
2023-04-29T06:05:17.948Z,17.60
2023-04-29T06:08:35.545Z,25.33
2023-04-29T06:11:54.418Z,29.27
2023-04-29T06:18:31.504Z,15.80
2023-04-29T06:22:06.216Z,14.73
2023-04-29T06:25:25.524Z,12.57
2023-04-29T06:32:24.511Z,5.45
2023-04-29T06:35:58.469Z,6.22
2023-04-29T06:39:25.536Z,9.88
2023-04-29T06:42:54.209Z,5.78
2023-04-29T06:46:22.542Z,4.80
2023-04-29T06:49:51.182Z,5.10
2023-04-29T06:53:25.639Z,7.43
2023-04-29T06:56:53.634Z,3.22
2023-04-29T07:07:36.399Z,5.15
2023-04-29T07:10:57.465Z,7.35
2023-04-29T07:14:42.555Z,5.43
2023-04-29T07:18:09.042Z,4.60
2023-04-29T07:21:38.844Z,11.07
2023-04-29T07:25:02.362Z,5.28
2023-04-29T07:28:09.302Z,5.03
2023-04-29T07:32:16.595Z,6.72
2023-04-29T07:35:19.568Z,6.18
2023-04-29T07:38:42.661Z,5.45
2023-04-29T07:41:54.271Z,7.43
2023-04-29T07:45:14.178Z,5.32
2023-04-29T07:48:21.497Z,3.33
2023-04-29T07:51:46.226Z,4.35
2023-04-29T07:55:30.116Z,5.28
2023-04-29T07:58:57.778Z,4.90
2023-04-29T08:02:16.951Z,4.40
2023-04-29T08:05:26.288Z,3.97
2023-04-29T08:08:44.017Z,5.30
2023-04-29T08:12:31.953Z,4.25
2023-04-29T08:15:53.202Z,5.03
2023-04-29T08:19:16.856Z,6.50
2023-04-29T08:22:29.483Z,4.65
2023-04-29T08:25:56.331Z,5.10
2023-04-29T08:29:19.210Z,5.57
2023-04-29T08:32:24.635Z,4.27
2023-04-29T08:35:49.201Z,5.12
2023-04-29T08:39:12.648Z,7.35
2023-04-29T08:42:37.739Z,4.72
2023-04-29T08:45:45.354Z,4.03
2023-04-29T08:49:09.861Z,6.40
2023-04-29T08:52:47.719Z,4.30
2023-04-29T08:55:54.643Z,4.53
2023-04-29T08:59:03.394Z,5.82
2023-04-29T09:02:55.311Z,5.75
2023-04-29T09:06:15.916Z,4.60
2023-04-29T09:09:39.850Z,3.78
2023-04-29T09:15:47.907Z,3.15
2023-04-29T09:19:38.343Z,4.80
2023-04-29T09:23:14.961Z,3.08
2023-04-29T09:26:52.732Z,4.28
2023-04-29T09:30:03.559Z,3.47
2023-04-29T09:33:17.712Z,2.55
2023-04-29T09:36:50.263Z,3.60
2023-04-29T09:40:33.012Z,3.35
2023-04-29T09:44:06.080Z,8.07
2023-04-29T09:47:11.536Z,3.10
2023-04-29T09:50:29.798Z,3.42
2023-04-29T09:53:38.281Z,4.93
2023-04-29T10:00:16.075Z,3.35
2023-04-29T10:03:23.901Z,5.47
2023-04-29T10:06:29.358Z,4.40
2023-04-29T10:09:53.523Z,4.90
2023-04-29T10:13:27.620Z,3.42
2023-04-29T10:17:19.299Z,5.65
2023-04-29T10:20:41.306Z,3.67
2023-04-29T10:24:19.029Z,4.20
2023-04-29T10:27:37.587Z,3.40
2023-04-29T10:31:20.405Z,3.30
2023-04-29T10:34:56.467Z,2.75
2023-04-29T10:38:28.148Z,4.37
2023-04-29T10:41:58.044Z,3.42
2023-04-29T10:45:28.951Z,3.55
2023-04-29T10:49:07.248Z,2.75
2023-04-29T10:52:56.397Z,4.20
2023-04-29T10:56:13.327Z,5.07
2023-04-29T11:00:05.682Z,3.85
2023-04-29T11:03:59.216Z,6.87
2023-04-29T11:07:39.236Z,4.85
2023-04-29T11:11:08.471Z,5.78
2023-04-29T11:14:53.722Z,2.60
2023-04-29T11:18:20.499Z,2.83
2023-04-29T11:21:46.050Z,3.45
2023-04-29T11:25:16.738Z,5.22
2023-04-29T11:31:45.737Z,5.07
2023-04-29T11:35:24.725Z,3.47
2023-04-29T11:38:37.172Z,4.50
2023-04-29T11:46:14.614Z,3.58
2023-04-29T11:50:06.617Z,6.60
2023-04-29T11:53:10.366Z,3.58
2023-04-29T11:57:16.095Z,4.40
2023-04-29T12:00:40.135Z,4.85
2023-04-29T12:04:48.854Z,2.50
2023-04-29T12:08:34.721Z,3.50
2023-04-29T12:11:53.745Z,4.22
2023-04-29T12:15:40.348Z,4.57
2023-04-29T12:30:22.220Z,2.83
2023-04-29T12:33:48.272Z,5.03
2023-04-29T12:37:26.130Z,6.57
2023-04-29T12:40:44.920Z,3.45
2023-04-29T12:44:19.919Z,4.03
2023-04-29T12:47:54.410Z,4.90
2023-04-29T12:51:11.991Z,3.55
2023-04-29T12:54:32.828Z,3.08
2023-04-29T12:57:50.963Z,4.00
2023-04-29T13:04:38.623Z,2.80
2023-04-29T13:08:09.421Z,3.55
2023-04-29T13:11:32.183Z,5.35
2023-04-29T13:14:43.835Z,4.97
2023-04-29T13:18:04.408Z,3.03
2023-04-29T13:21:41.604Z,2.65
2023-04-29T13:28:24.460Z,3.80
2023-04-29T13:31:51.785Z,4.28
2023-04-29T13:35:10.534Z,5.20
2023-04-29T13:38:30.644Z,3.30
2023-04-29T13:42:15.477Z,4.07
2023-04-29T13:45:19.796Z,3.47
2023-04-29T13:59:44.774Z,4.72
2023-04-29T14:03:12.973Z,3.65
2023-04-29T14:06:32.728Z,5.80
2023-04-29T14:10:19.392Z,2.67
2023-04-29T14:13:36.821Z,3.60
2023-04-29T14:16:57.956Z,5.07
2023-04-29T14:20:28.640Z,5.85
2023-04-29T14:23:55.399Z,2.28
2023-04-29T14:27:13.413Z,4.87
2023-04-29T14:30:17.493Z,3.25
2023-04-29T14:33:22.841Z,2.50
2023-04-29T14:36:41.817Z,4.78
2023-04-29T14:40:00.968Z,3.08
2023-04-29T14:43:29.373Z,4.30
2023-04-29T14:46:57.373Z,3.75
2023-04-29T14:50:33.290Z,2.83
2023-04-29T14:54:01.384Z,3.95
2023-04-29T14:57:30.356Z,3.80
2023-04-29T15:00:57.610Z,2.25
2023-04-29T15:04:14.755Z,4.15
2023-04-29T15:07:51.983Z,2.58
2023-04-29T15:11:11.753Z,2.90
2023-04-29T15:14:34.468Z,2.65
2023-04-29T15:18:09.237Z,3.22
2023-04-29T15:22:01.422Z,5.35
2023-04-29T15:25:09.211Z,3.85
2023-04-29T15:28:36.838Z,3.17
2023-04-29T15:31:58.551Z,3.00
2023-04-29T15:35:25.754Z,2.60
2023-04-29T15:38:47.900Z,3.30
2023-04-29T15:42:16.890Z,3.75
2023-04-29T15:45:45.936Z,4.93
2023-04-29T15:49:16.783Z,3.72
2023-04-29T15:52:35.769Z,3.83
2023-04-29T15:56:13.421Z,3.78
2023-04-29T15:59:44.371Z,2.60
2023-04-29T16:03:02.913Z,2.40
2023-04-29T16:06:31.059Z,3.28
2023-04-29T16:09:58.359Z,2.47
2023-04-29T16:16:45.070Z,3.05
2023-04-29T16:20:03.430Z,3.17
2023-04-29T16:23:29.741Z,3.62
2023-04-29T16:27:05.372Z,2.80
2023-04-29T16:30:12.256Z,4.55
2023-04-29T16:33:19.101Z,2.67
2023-04-29T16:37:13.296Z,4.15
2023-04-29T16:40:40.517Z,3.72
2023-04-29T16:44:00.353Z,3.80
2023-04-29T16:47:37.806Z,3.78
2023-04-29T16:51:04.916Z,6.40
2023-04-29T16:54:23.964Z,5.05
2023-04-29T16:57:51.577Z,3.30
2023-04-29T17:01:08.586Z,4.15
2023-04-29T17:04:35.776Z,3.70
2023-04-29T17:07:57.615Z,4.68
2023-04-29T17:11:16.483Z,4.30
2023-04-29T17:14:33.535Z,9.27
2023-04-29T17:17:51.714Z,3.75
2023-04-29T17:21:23.239Z,4.65
2023-04-29T17:24:59.331Z,3.67
2023-04-29T17:28:48.848Z,4.62
2023-04-29T17:32:25.569Z,6.40
2023-04-29T17:36:09.379Z,4.75
2023-04-29T17:39:29.201Z,3.60
2023-04-29T17:43:10.975Z,3.30
2023-04-29T17:46:39.043Z,3.53
2023-04-29T17:50:00.233Z,3.70
2023-04-29T17:53:13.752Z,3.70
2023-04-29T17:56:53.642Z,3.37
2023-04-29T18:00:31.156Z,4.65
2023-04-29T18:03:57.608Z,4.32
2023-04-29T18:08:03.055Z,5.20
2023-04-29T18:11:46.403Z,5.57
2023-04-29T18:15:25.457Z,4.57
2023-04-29T18:18:32.257Z,5.57
2023-04-29T18:21:58.223Z,4.90
2023-04-29T18:25:18.733Z,4.15
2023-04-29T18:28:57.514Z,5.57
2023-04-29T18:32:42.695Z,4.28
2023-04-29T18:36:06.514Z,4.35
2023-04-29T18:39:44.423Z,4.55
2023-04-29T18:43:12.403Z,5.28
2023-04-29T18:46:32.561Z,4.28
2023-04-29T18:49:50.584Z,5.75
2023-04-29T18:53:36.301Z,5.50
2023-04-29T18:57:10.586Z,6.95
2023-04-29T19:00:51.469Z,5.65
2023-04-29T19:04:25.753Z,6.65
2023-04-29T19:08:00.153Z,5.57
2023-04-29T19:11:34.757Z,6.20
2023-04-29T19:15:25.572Z,5.93
2023-04-29T19:18:47.587Z,5.32
2023-04-29T19:22:14.768Z,7.30
2023-04-29T19:25:33.665Z,5.82
2023-04-29T19:29:30.000Z,5.78
2023-04-29T19:32:50.632Z,5.95
2023-04-29T19:36:27.056Z,4.30
2023-04-29T19:39:56.852Z,6.65
2023-04-29T19:43:24.527Z,4.95
2023-04-29T19:46:56.685Z,5.20
2023-04-29T19:50:30.698Z,12.23
2023-04-29T19:54:00.328Z,12.93
2023-04-29T19:57:38.155Z,11.18
2023-04-29T20:01:02.401Z,14.95
2023-04-29T20:04:24.815Z,10.43
2023-04-29T20:08:08.772Z,13.05
2023-04-29T20:11:39.171Z,8.48
2023-04-29T20:15:15.969Z,7.72
2023-04-29T20:18:36.628Z,7.28
2023-04-29T20:21:54.770Z,7.70
2023-04-29T20:25:11.763Z,13.98
2023-04-29T20:28:29.887Z,7.05
2023-04-29T20:32:14.554Z,11.63
2023-04-29T20:35:47.149Z,6.50
2023-04-29T20:39:20.955Z,8.68
2023-04-29T20:42:57.713Z,6.30
2023-04-29T20:46:31.874Z,5.57
2023-04-29T20:49:49.880Z,7.60
2023-04-29T20:53:23.565Z,5.68
2023-04-29T20:56:50.871Z,5.50
2023-04-29T21:00:25.421Z,6.15
2023-04-29T21:03:54.682Z,6.37
2023-04-29T21:07:12.821Z,6.47
2023-04-29T21:10:30.939Z,7.78
2023-04-29T21:14:00.179Z,7.85
2023-04-29T21:17:24.257Z,7.15
2023-04-29T21:20:42.072Z,7.15
2023-04-29T21:24:17.512Z,6.22
2023-04-29T21:27:41.737Z,4.68
2023-04-29T21:31:16.557Z,7.53
2023-04-29T21:34:34.650Z,5.22
2023-04-29T21:38:20.919Z,6.17
2023-04-29T21:42:04.410Z,8.27
2023-04-29T21:45:31.977Z,6.53
2023-04-29T21:49:05.276Z,6.35
2023-04-29T21:52:35.327Z,8.90
2023-04-29T21:56:19.164Z,6.37
2023-04-29T21:59:46.883Z,6.55
2023-04-29T22:06:35.002Z,9.95
2023-04-29T22:10:02.881Z,8.63
2023-04-29T22:13:37.875Z,8.52
2023-04-29T22:17:14.543Z,10.47
2023-04-29T22:20:45.624Z,11.38
2023-04-29T22:24:23.835Z,21.95
2023-04-29T22:27:40.759Z,25.00
2023-04-29T22:31:17.774Z,30.30
2023-04-29T22:34:44.607Z,23.75
2023-04-29T22:38:05.567Z,16.92
2023-04-29T22:41:50.656Z,14.20
2023-04-29T22:48:30.019Z,10.57
2023-04-29T22:51:57.948Z,8.95
2023-04-29T22:55:38.235Z,8.60
2023-04-29T22:59:12.926Z,10.82
2023-04-29T23:02:30.748Z,8.25
2023-04-29T23:05:59.842Z,10.60
2023-04-29T23:09:36.636Z,8.95
2023-04-29T23:12:57.118Z,10.13
2023-04-29T23:16:36.043Z,9.68
2023-04-29T23:20:04.539Z,10.32
2023-04-29T23:23:22.256Z,9.23
2023-04-29T23:26:57.142Z,8.07
2023-04-29T23:30:27.736Z,8.50
2023-04-29T23:34:13.251Z,8.75
2023-04-29T23:37:30.616Z,7.28
2023-04-29T23:40:59.730Z,8.48
2023-04-29T23:44:33.610Z,7.25
2023-04-29T23:47:50.686Z,7.43
2023-04-29T23:51:14.100Z,8.63
2023-04-29T23:54:41.522Z,8.52
2023-04-29T23:58:17.970Z,9.50
